クチン の空港の天気 - METARとTAF

クチン国際空港 ( WBGG / KCH ) - マレーシア サラワク州クチン
飛行場実況気象(Metar)
観測時間07/20 20:00 MYT (07/20 12:00 UTC)
風向・風速北西 2m/s
視程10km以上
天気現象
少しの雲 雲底高度 610m
全天の8割程度の雲 雲底高度 9140m
気温29℃
湿度84%
気圧1007hPa
METARWBGG 201200Z 32004KT 280V360 9999 FEW020 BKN300 29/26 Q1007 NOSIG
過去の天気等 Google飛行場航空写真 Wunderground天気予報

過去48時間のMETAR

飛行場予報(TAF)
発表時間: 7/20 19:00 MYT (7/20 11:00 UTC)
予報対象時間: 20日20時 MYT ~ 21日20時 MYT
風向・風速西南西 3m/s
視程10km以上
少しの雲 雲底高度 610m
21日2時 MYT ~ 21日6時 MYT に一時的に
視程3000m
天気現象雷雨
少しの積乱雲 雲底高度 460m
全天の4割程度の雲 雲底高度 610m
TAF WBGG 201100Z 2012/2112 24006KT 9999 FEW020
TEMPO 2018/2022 3000 TSRA FEW015CB SCT020